createdAt,value
2018-01-11T00:00:04.554Z,13.10
2018-01-11T00:02:33.622Z,13.43
2018-01-11T00:05:02.024Z,13.10
2018-01-11T00:07:31.121Z,12.30
2018-01-11T00:10:00.558Z,13.93
2018-01-11T00:12:28.943Z,12.87
2018-01-11T00:14:57.278Z,11.60
2018-01-11T00:17:25.623Z,12.63
2018-01-11T00:19:54.142Z,14.20
2018-01-11T00:22:23.226Z,11.77
2018-01-11T00:24:52.441Z,13.03
2018-01-11T00:27:20.772Z,13.60
2018-01-11T00:29:49.934Z,13.50
2018-01-11T00:32:18.257Z,13.53
2018-01-11T00:34:46.599Z,13.43
2018-01-11T00:37:14.988Z,14.03
2018-01-11T00:39:43.500Z,13.47
2018-01-11T00:42:13.518Z,13.30
2018-01-11T00:44:41.813Z,13.77
2018-01-11T00:47:11.725Z,13.47
2018-01-11T00:49:40.783Z,11.63
2018-01-11T00:52:10.224Z,13.80
2018-01-11T00:54:40.491Z,14.03
2018-01-11T00:57:09.004Z,13.10
2018-01-11T00:59:39.550Z,12.37
2018-01-11T01:02:08.696Z,13.40
2018-01-11T01:04:37.258Z,13.50
2018-01-11T01:07:06.734Z,13.50
2018-01-11T01:09:36.796Z,12.93
2018-01-11T01:12:05.115Z,12.87
2018-01-11T01:14:34.568Z,12.67
2018-01-11T01:17:03.710Z,14.23
2018-01-11T01:19:33.021Z,12.67
2018-01-11T01:22:02.880Z,12.87
2018-01-11T01:24:32.268Z,11.67
2018-01-11T01:27:00.614Z,12.30
2018-01-11T01:29:28.975Z,12.73
2018-01-11T01:31:57.952Z,12.60
2018-01-11T01:34:26.300Z,11.77
2018-01-11T01:36:56.503Z,12.07
2018-01-11T01:39:25.291Z,12.97
2018-01-11T01:41:54.567Z,13.53
2018-01-11T01:44:22.878Z,12.67
2018-01-11T01:46:52.015Z,13.47
2018-01-11T01:49:20.394Z,13.70
2018-01-11T01:51:48.780Z,13.80
2018-01-11T01:54:17.366Z,11.60
2018-01-11T01:56:48.659Z,13.20
2018-01-11T01:59:18.942Z,14.20
2018-01-11T02:01:47.471Z,14.73
2018-01-11T02:04:16.661Z,13.67
2018-01-11T02:06:45.003Z,13.27
2018-01-11T02:09:15.026Z,13.60
2018-01-11T02:11:44.437Z,14.23
2018-01-11T02:14:13.712Z,14.17
2018-01-11T02:16:44.304Z,13.80
2018-01-11T02:19:13.213Z,16.07
2018-01-11T02:21:43.204Z,15.37
2018-01-11T02:24:11.632Z,14.13
2018-01-11T02:26:41.324Z,15.23
2018-01-11T02:29:12.713Z,15.30
2018-01-11T02:31:43.820Z,14.90
2018-01-11T02:34:12.930Z,15.33
2018-01-11T02:36:41.611Z,16.70
2018-01-11T02:39:10.707Z,16.27
2018-01-11T02:41:39.162Z,15.90
2018-01-11T02:44:08.715Z,14.43
2018-01-11T02:46:37.273Z,16.07
2018-01-11T02:49:06.659Z,14.70
2018-01-11T02:51:35.993Z,15.97
2018-01-11T02:54:04.477Z,14.10
2018-01-11T02:56:32.926Z,13.33
2018-01-11T02:59:05.197Z,13.57
2018-01-11T03:01:33.711Z,15.20
2018-01-11T03:04:02.109Z,14.87
2018-01-11T03:09:25.629Z,14.80
2018-01-11T03:11:54.242Z,15.37
2018-01-11T03:14:22.700Z,15.00
2018-01-11T03:16:51.214Z,15.00
2018-01-11T03:19:20.345Z,15.03
2018-01-11T03:21:48.691Z,14.93
2018-01-11T03:24:17.008Z,15.50
2018-01-11T03:26:45.671Z,15.40
2018-01-11T03:29:14.043Z,14.37
2018-01-11T03:31:42.424Z,14.57
2018-01-11T03:34:11.545Z,13.73
2018-01-11T03:36:40.005Z,15.67
2018-01-11T03:39:09.277Z,18.00
2018-01-11T03:41:37.657Z,19.90
2018-01-11T03:44:10.084Z,19.60
2018-01-11T03:46:39.895Z,21.10
2018-01-11T03:49:10.397Z,19.80
2018-01-11T03:51:39.658Z,16.07
2018-01-11T03:54:11.368Z,17.07
2018-01-11T03:56:40.668Z,17.17
2018-01-11T03:59:10.810Z,16.17
2018-01-11T04:01:39.131Z,14.67
2018-01-11T04:04:08.344Z,15.83
2018-01-11T04:06:37.240Z,16.40
2018-01-11T04:09:05.568Z,14.03
2018-01-11T04:11:33.910Z,15.13
2018-01-11T04:14:04.900Z,14.67
2018-01-11T04:16:33.161Z,14.27
2018-01-11T04:19:02.461Z,13.20
2018-01-11T04:21:31.491Z,15.10
2018-01-11T04:23:59.947Z,14.40
2018-01-11T04:26:29.962Z,14.70
2018-01-11T04:29:00.142Z,13.50
2018-01-11T04:31:29.638Z,14.43
2018-01-11T04:33:57.996Z,15.10
2018-01-11T04:36:26.277Z,15.77
2018-01-11T04:38:54.614Z,13.50
2018-01-11T04:41:23.056Z,14.50
2018-01-11T04:43:52.486Z,14.87
2018-01-11T04:46:20.856Z,16.20
2018-01-11T04:48:50.028Z,16.97
2018-01-11T04:51:19.033Z,15.33
2018-01-11T04:53:49.327Z,15.70
2018-01-11T04:56:17.670Z,15.07
2018-01-11T04:58:46.026Z,14.87
2018-01-11T05:01:15.456Z,16.40
2018-01-11T05:03:43.786Z,15.10
2018-01-11T05:06:13.023Z,13.80
2018-01-11T05:08:43.715Z,16.07
2018-01-11T05:11:13.654Z,15.20
2018-01-11T05:13:42.151Z,15.97
2018-01-11T05:16:11.242Z,15.53
2018-01-11T05:18:39.519Z,17.53
2018-01-11T05:21:08.651Z,14.47
2018-01-11T05:23:37.033Z,15.80
2018-01-11T05:26:05.562Z,15.27
2018-01-11T05:28:33.983Z,14.90
2018-01-11T05:31:03.228Z,14.13
2018-01-11T05:33:31.522Z,15.40
2018-01-11T05:36:00.623Z,14.60
2018-01-11T05:38:29.318Z,18.00
2018-01-11T05:40:57.663Z,18.00
2018-01-11T05:43:25.980Z,17.63
2018-01-11T05:45:56.161Z,19.60
2018-01-11T05:48:24.538Z,18.47
2018-01-11T05:50:54.453Z,17.60
2018-01-11T05:53:23.367Z,16.27
2018-01-11T05:55:52.460Z,16.97
2018-01-11T05:58:22.791Z,17.87
2018-01-11T06:00:51.223Z,18.60
2018-01-11T06:03:19.539Z,17.07
2018-01-11T06:05:47.875Z,19.43
2018-01-11T06:08:16.198Z,19.87
2018-01-11T06:10:45.356Z,18.73
2018-01-11T06:13:13.692Z,18.17
2018-01-11T06:15:42.069Z,18.67
2018-01-11T06:18:10.343Z,20.67
2018-01-11T06:20:38.825Z,17.80
2018-01-11T06:23:08.011Z,17.97
2018-01-11T06:25:36.347Z,19.83
2018-01-11T06:28:04.783Z,20.60
2018-01-11T06:30:34.711Z,25.80
2018-01-11T06:33:03.300Z,18.53
2018-01-11T06:35:31.626Z,19.13
2018-01-11T06:37:59.877Z,18.87
2018-01-11T06:40:28.279Z,19.40
2018-01-11T06:42:56.712Z,18.63
2018-01-11T06:45:26.541Z,18.80
2018-01-11T06:48:05.544Z,20.93
2018-01-11T06:50:33.948Z,19.77
2018-01-11T06:53:02.432Z,20.17
2018-01-11T06:55:31.660Z,20.50
2018-01-11T06:58:02.737Z,19.37
2018-01-11T07:00:31.053Z,21.70
2018-01-11T07:03:00.885Z,21.37
2018-01-11T07:05:29.265Z,21.40
2018-01-11T07:07:57.761Z,20.07
2018-01-11T07:10:26.058Z,18.97
2018-01-11T07:12:54.557Z,20.43
2018-01-11T07:15:22.865Z,19.83
2018-01-11T07:17:52.906Z,21.77
2018-01-11T07:20:23.192Z,19.80
2018-01-11T07:22:51.451Z,22.70
2018-01-11T07:25:19.971Z,20.60
2018-01-11T07:27:48.539Z,20.27
2018-01-11T07:30:17.127Z,20.40
2018-01-11T07:32:46.368Z,22.17
2018-01-11T07:35:14.954Z,19.27
2018-01-11T07:37:48.238Z,20.83
2018-01-11T07:40:16.628Z,20.03
2018-01-11T07:42:45.139Z,22.97
2018-01-11T07:45:13.426Z,23.07
2018-01-11T07:47:41.856Z,20.40
2018-01-11T07:50:12.400Z,22.47
2018-01-11T07:52:42.170Z,27.10
2018-01-11T07:55:10.823Z,21.60
2018-01-11T07:57:40.003Z,23.60
2018-01-11T08:00:08.492Z,21.43
2018-01-11T08:02:36.888Z,22.13
2018-01-11T08:05:06.114Z,19.53
2018-01-11T08:07:35.303Z,20.37
2018-01-11T08:10:03.677Z,21.27
2018-01-11T08:12:33.578Z,20.27
2018-01-11T08:15:02.294Z,19.77
2018-01-11T08:17:30.641Z,21.73
2018-01-11T08:19:59.889Z,20.10
2018-01-11T08:22:28.817Z,19.90
2018-01-11T08:24:59.415Z,21.17
2018-01-11T08:27:27.767Z,23.70
2018-01-11T08:29:56.110Z,22.20
2018-01-11T08:32:24.550Z,23.17
2018-01-11T08:34:52.962Z,24.50
2018-01-11T08:37:21.500Z,25.77
2018-01-11T08:39:49.811Z,24.13
2018-01-11T08:42:29.726Z,22.97
2018-01-11T08:44:58.958Z,22.63
2018-01-11T08:47:29.612Z,23.97
2018-01-11T08:49:58.126Z,29.80
2018-01-11T08:52:28.226Z,26.83
2018-01-11T08:54:57.176Z,23.93
2018-01-11T08:57:26.291Z,24.33
2018-01-11T08:59:57.032Z,20.37
2018-01-11T09:02:25.681Z,19.30
2018-01-11T09:04:56.232Z,19.67
2018-01-11T09:07:24.565Z,21.50
2018-01-11T09:09:53.049Z,23.10
2018-01-11T09:12:31.421Z,19.23
2018-01-11T09:15:00.918Z,19.93
2018-01-11T09:17:30.254Z,21.10
2018-01-11T09:19:59.426Z,20.97
2018-01-11T09:22:27.852Z,21.47
2018-01-11T09:25:00.265Z,19.37
2018-01-11T09:27:28.662Z,19.93
2018-01-11T09:29:57.956Z,20.67
2018-01-11T09:32:28.582Z,21.10
2018-01-11T09:34:58.128Z,22.20
2018-01-11T09:37:36.735Z,21.40
2018-01-11T09:43:37.222Z,21.43
2018-01-11T09:46:05.658Z,19.57
2018-01-11T09:48:34.892Z,20.20
2018-01-11T09:51:06.172Z,20.10
2018-01-11T09:53:34.512Z,18.17
2018-01-11T09:56:02.941Z,21.93
2018-01-11T09:58:31.413Z,20.53
2018-01-11T10:04:00.542Z,22.63
2018-01-11T10:06:28.831Z,20.77
2018-01-11T10:08:57.864Z,22.00
2018-01-11T10:11:27.658Z,23.57
2018-01-11T10:13:56.823Z,22.47
2018-01-11T10:16:26.220Z,24.13
2018-01-11T10:18:54.746Z,25.43
2018-01-11T10:21:23.064Z,26.40
2018-01-11T10:24:04.207Z,24.93
2018-01-11T10:26:33.322Z,23.23
2018-01-11T10:29:01.723Z,23.23
2018-01-11T10:31:30.047Z,24.97
2018-01-11T10:33:59.301Z,25.40
2018-01-11T10:36:27.767Z,23.43
2018-01-11T10:39:00.550Z,24.47
2018-01-11T10:41:29.751Z,22.77
2018-01-11T10:43:58.547Z,22.50
2018-01-11T10:46:26.824Z,24.90
2018-01-11T10:48:55.130Z,23.47
2018-01-11T10:51:23.560Z,25.80
2018-01-11T10:53:51.922Z,43.53
2018-01-11T10:56:21.779Z,42.30
2018-01-11T10:58:51.050Z,39.43
2018-01-11T11:01:25.134Z,40.03
2018-01-11T11:03:54.010Z,36.57
2018-01-11T11:06:23.368Z,34.03
2018-01-11T11:08:52.386Z,34.67
2018-01-11T11:11:20.734Z,32.87
2018-01-11T11:13:49.885Z,32.20
2018-01-11T11:16:18.258Z,29.77
2018-01-11T11:18:46.581Z,31.80
2018-01-11T11:21:15.098Z,29.53
2018-01-11T11:23:43.414Z,26.17
2018-01-11T11:26:11.843Z,26.80
2018-01-11T11:28:40.267Z,26.83
2018-01-11T11:31:08.755Z,22.63
2018-01-11T11:33:37.086Z,25.13
2018-01-11T11:36:05.561Z,24.17
2018-01-11T11:38:34.043Z,23.53
2018-01-11T11:41:03.162Z,23.90
2018-01-11T11:43:31.466Z,25.67
2018-01-11T11:45:59.980Z,25.50
2018-01-11T11:48:28.433Z,25.40
2018-01-11T11:50:56.951Z,23.07
2018-01-11T11:53:25.615Z,21.60
2018-01-11T11:55:54.903Z,22.53
2018-01-11T11:58:23.241Z,21.40
2018-01-11T12:00:51.613Z,21.60
2018-01-11T12:03:20.102Z,19.87
2018-01-11T12:05:48.430Z,19.27
2018-01-11T12:08:17.622Z,19.77
2018-01-11T12:10:46.464Z,18.53
2018-01-11T12:13:14.842Z,19.17
2018-01-11T12:15:43.422Z,17.70
2018-01-11T12:18:11.749Z,17.87
2018-01-11T12:20:40.586Z,18.20
2018-01-11T12:23:09.109Z,19.47
2018-01-11T12:25:38.392Z,18.93
2018-01-11T12:28:06.771Z,19.23
2018-01-11T12:30:35.071Z,19.30
2018-01-11T12:33:06.951Z,20.20
2018-01-11T12:35:36.145Z,18.10
2018-01-11T12:38:04.505Z,17.47
2018-01-11T12:40:33.609Z,19.13
2018-01-11T12:43:02.092Z,18.37
2018-01-11T12:45:30.612Z,20.80
2018-01-11T12:48:00.776Z,18.30
2018-01-11T12:50:29.144Z,19.13
2018-01-11T12:52:57.781Z,18.83
2018-01-11T12:55:26.145Z,17.60
2018-01-11T12:57:54.682Z,16.50
2018-01-11T13:00:23.004Z,17.53
2018-01-11T13:02:51.458Z,16.50
2018-01-11T13:05:20.054Z,18.23
2018-01-11T13:07:48.667Z,17.90
2018-01-11T13:10:17.153Z,14.93
2018-01-11T13:12:45.583Z,16.20
2018-01-11T13:15:14.679Z,15.13
2018-01-11T13:17:43.055Z,15.93
2018-01-11T13:20:11.485Z,15.03
2018-01-11T13:22:40.810Z,15.80
2018-01-11T13:25:10.034Z,16.40
2018-01-11T13:27:39.433Z,16.20
2018-01-11T13:30:08.822Z,16.57
2018-01-11T13:32:38.000Z,14.43
2018-01-11T13:35:07.167Z,15.30
2018-01-11T13:37:35.422Z,15.97
2018-01-11T13:40:04.547Z,16.97
2018-01-11T13:42:32.854Z,16.20
2018-01-11T13:45:01.350Z,18.70
2018-01-11T13:47:29.845Z,18.50
2018-01-11T13:49:58.309Z,18.90
2018-01-11T13:52:26.653Z,19.47
2018-01-11T13:54:54.973Z,17.73
2018-01-11T13:57:23.460Z,19.53
2018-01-11T13:59:52.786Z,18.10
2018-01-11T14:02:22.008Z,16.37
2018-01-11T14:04:50.442Z,17.57
2018-01-11T14:07:19.854Z,16.80
2018-01-11T14:09:48.362Z,16.50
2018-01-11T14:12:17.128Z,17.10
2018-01-11T14:14:46.271Z,17.30
2018-01-11T14:17:14.652Z,15.40
2018-01-11T14:19:42.996Z,15.00
2018-01-11T14:22:11.516Z,17.00
2018-01-11T14:24:40.028Z,17.40
2018-01-11T14:27:08.813Z,16.40
2018-01-11T14:29:47.241Z,16.47
2018-01-11T14:32:18.354Z,14.60
2018-01-11T14:34:46.664Z,15.00
2018-01-11T14:37:15.117Z,17.20
2018-01-11T14:39:45.650Z,15.53
2018-01-11T14:42:13.947Z,17.07
2018-01-11T14:44:42.222Z,13.27
2018-01-11T14:47:10.534Z,14.43
2018-01-11T14:49:39.694Z,15.37
2018-01-11T14:52:08.169Z,15.03
2018-01-11T14:54:36.483Z,15.13
2018-01-11T14:57:05.541Z,16.93
2018-01-11T14:59:33.822Z,15.07
2018-01-11T15:02:02.174Z,14.17
2018-01-11T15:04:30.435Z,18.60
2018-01-11T15:06:59.845Z,17.17
2018-01-11T15:09:28.168Z,14.63
2018-01-11T15:11:58.493Z,15.90
2018-01-11T15:14:26.920Z,15.10
2018-01-11T15:16:55.588Z,15.67
2018-01-11T15:19:24.561Z,15.23
2018-01-11T15:21:52.971Z,16.07
2018-01-11T15:24:21.241Z,15.77
2018-01-11T15:26:49.504Z,17.70
2018-01-11T15:29:18.499Z,18.97
2018-01-11T15:31:47.565Z,19.13
2018-01-11T15:34:15.801Z,16.60
2018-01-11T15:36:44.087Z,15.97
2018-01-11T15:39:13.135Z,16.20
2018-01-11T15:41:41.438Z,15.40
2018-01-11T15:44:09.679Z,16.17
2018-01-11T15:46:37.958Z,16.20
2018-01-11T15:49:06.248Z,16.60
2018-01-11T15:51:36.032Z,16.67
2018-01-11T15:54:04.321Z,19.53
2018-01-11T15:56:32.910Z,14.83
2018-01-11T15:59:01.215Z,17.70
2018-01-11T16:01:29.427Z,17.37
2018-01-11T16:03:57.724Z,17.50
2018-01-11T16:06:26.050Z,19.47
2018-01-11T16:08:54.310Z,17.93
2018-01-11T16:11:24.208Z,18.20
2018-01-11T16:13:52.473Z,17.07
2018-01-11T16:16:20.755Z,43.10
2018-01-11T16:18:49.004Z,18.80
2018-01-11T16:21:17.266Z,19.33
2018-01-11T16:23:46.384Z,18.17
2018-01-11T16:26:14.661Z,19.07
2018-01-11T16:28:43.657Z,18.70
2018-01-11T16:31:11.909Z,18.40
2018-01-11T16:33:40.198Z,18.43
2018-01-11T16:36:08.495Z,18.87
2018-01-11T16:38:36.778Z,134.10
2018-01-11T16:41:05.964Z,21.57
2018-01-11T16:43:34.248Z,27.10
2018-01-11T16:46:02.548Z,21.53
2018-01-11T16:48:30.852Z,22.97
2018-01-11T16:50:59.197Z,22.13
2018-01-11T16:53:27.612Z,20.60
2018-01-11T16:55:55.903Z,18.10
2018-01-11T16:58:24.915Z,16.87
2018-01-11T17:00:53.438Z,20.30
2018-01-11T17:03:21.730Z,24.40
2018-01-11T17:05:50.807Z,18.60
2018-01-11T17:08:19.103Z,18.70
2018-01-11T17:10:47.342Z,20.20
2018-01-11T17:13:15.641Z,20.40
2018-01-11T17:15:43.876Z,22.10
2018-01-11T17:18:12.986Z,21.10
2018-01-11T17:20:41.293Z,21.90
2018-01-11T17:23:09.541Z,20.80
2018-01-11T17:25:38.698Z,21.80
2018-01-11T17:28:06.948Z,23.20
2018-01-11T17:30:35.270Z,21.13
2018-01-11T17:33:04.668Z,21.27
2018-01-11T17:35:33.708Z,21.93
2018-01-11T17:38:01.996Z,27.30
2018-01-11T17:40:30.301Z,36.93
2018-01-11T17:42:58.572Z,22.33
2018-01-11T17:45:27.679Z,27.07
2018-01-11T17:47:55.986Z,30.87
2018-01-11T17:50:25.044Z,26.27
2018-01-11T17:52:53.338Z,19.87
2018-01-11T17:55:22.679Z,21.60
2018-01-11T17:57:51.740Z,20.70
2018-01-11T18:00:19.997Z,22.47
2018-01-11T18:02:48.246Z,22.60
2018-01-11T18:05:16.512Z,21.63
2018-01-11T18:07:44.884Z,20.80
2018-01-11T18:10:13.923Z,21.67
2018-01-11T18:12:42.543Z,20.10
2018-01-11T18:15:11.591Z,20.13
2018-01-11T18:17:39.856Z,21.20
2018-01-11T18:20:08.152Z,23.70
2018-01-11T18:22:36.409Z,26.20
2018-01-11T18:25:04.683Z,26.63
2018-01-11T18:27:32.968Z,26.10
2018-01-11T18:30:01.335Z,24.10
2018-01-11T18:32:29.872Z,22.47
2018-01-11T18:34:58.146Z,22.90
2018-01-11T18:37:26.479Z,24.60
2018-01-11T18:39:54.929Z,22.30
2018-01-11T18:42:23.183Z,22.27
2018-01-11T18:44:51.541Z,22.40
2018-01-11T18:47:19.792Z,21.90
2018-01-11T18:49:49.009Z,22.20
2018-01-11T18:52:17.314Z,20.03
2018-01-11T18:54:45.640Z,22.53
2018-01-11T18:57:14.672Z,22.20
2018-01-11T18:59:43.077Z,24.87
2018-01-11T19:02:11.337Z,21.90
2018-01-11T19:04:41.150Z,23.00
2018-01-11T19:07:09.461Z,30.90
2018-01-11T19:09:37.998Z,23.83
2018-01-11T19:12:07.611Z,22.60
2018-01-11T19:14:36.004Z,21.57
2018-01-11T19:17:04.295Z,20.17
2018-01-11T19:19:32.612Z,23.70
2018-01-11T19:22:00.952Z,24.40
2018-01-11T19:24:29.515Z,23.20
2018-01-11T19:26:57.857Z,24.60
2018-01-11T19:29:26.270Z,26.70
2018-01-11T19:31:54.680Z,27.40
2018-01-11T19:34:23.008Z,23.70
2018-01-11T19:36:51.858Z,27.90
2018-01-11T19:39:20.896Z,26.77
2018-01-11T19:41:49.170Z,26.37
2018-01-11T19:44:17.509Z,27.00
2018-01-11T19:46:45.783Z,23.63
2018-01-11T19:49:14.149Z,25.30
2018-01-11T19:51:42.429Z,24.77
2018-01-11T19:54:10.691Z,24.63
2018-01-11T19:56:38.977Z,23.53
2018-01-11T19:59:07.248Z,22.23
2018-01-11T20:01:36.402Z,21.80
2018-01-11T20:04:04.912Z,24.30
2018-01-11T20:06:34.078Z,26.20
2018-01-11T20:09:03.157Z,24.73
2018-01-11T20:11:32.241Z,25.27
2018-01-11T20:14:00.513Z,25.20
2018-01-11T20:16:29.698Z,27.37
2018-01-11T20:18:58.007Z,27.70
2018-01-11T20:21:26.492Z,27.20
2018-01-11T20:23:56.305Z,25.20
2018-01-11T20:26:26.309Z,25.07
2018-01-11T20:28:54.591Z,23.47
2018-01-11T20:31:22.913Z,27.60
2018-01-11T20:33:51.171Z,27.53
2018-01-11T20:36:19.499Z,25.47
2018-01-11T20:38:47.754Z,25.83
2018-01-11T20:41:16.694Z,46.27
2018-01-11T20:43:44.983Z,26.33
2018-01-11T20:46:14.017Z,25.80
2018-01-11T20:48:42.896Z,24.30
2018-01-11T20:51:11.312Z,25.13
2018-01-11T20:53:39.633Z,24.53
2018-01-11T20:56:07.942Z,25.90
2018-01-11T20:58:36.194Z,26.10
2018-01-11T21:01:04.534Z,25.83
2018-01-11T21:03:33.192Z,23.73
2018-01-11T21:06:01.459Z,24.43
2018-01-11T21:08:29.788Z,27.30
2018-01-11T21:10:58.068Z,26.50
2018-01-11T21:13:26.294Z,27.57
2018-01-11T21:15:54.596Z,26.60
2018-01-11T21:18:22.896Z,28.53
2018-01-11T21:20:51.167Z,28.43
2018-01-11T21:23:19.449Z,30.00
2018-01-11T21:25:47.746Z,29.90
2018-01-11T21:28:16.122Z,29.70
2018-01-11T21:30:44.367Z,30.33
2018-01-11T21:33:12.651Z,31.50
2018-01-11T21:35:40.982Z,28.97
2018-01-11T21:38:09.267Z,29.83
2018-01-11T21:40:37.557Z,29.53
2018-01-11T21:43:05.812Z,28.53
2018-01-11T21:45:34.091Z,31.77
2018-01-11T21:48:03.727Z,31.60
2018-01-11T21:50:32.005Z,31.60
2018-01-11T21:53:00.314Z,32.37
2018-01-11T21:55:28.595Z,32.97
2018-01-11T21:57:56.878Z,32.87
2018-01-11T22:00:25.178Z,33.40
2018-01-11T22:02:54.178Z,31.47
2018-01-11T22:05:22.481Z,36.20
2018-01-11T22:07:50.818Z,34.67
2018-01-11T22:10:19.068Z,34.73
2018-01-11T22:12:47.367Z,32.83
2018-01-11T22:15:15.639Z,34.40
2018-01-11T22:17:43.914Z,36.27
2018-01-11T22:20:12.156Z,36.93
2018-01-11T22:22:40.454Z,35.17
2018-01-11T22:25:08.787Z,36.30
2018-01-11T22:27:37.039Z,33.77
2018-01-11T22:30:05.314Z,36.50
2018-01-11T22:32:34.341Z,37.03
2018-01-11T22:35:02.631Z,38.07
2018-01-11T22:37:30.915Z,36.70
2018-01-11T22:39:59.180Z,37.97
2018-01-11T22:42:27.469Z,38.53
2018-01-11T22:44:55.739Z,36.37
2018-01-11T22:47:24.328Z,41.17
2018-01-11T22:49:52.578Z,38.80
2018-01-11T22:52:20.855Z,37.43
2018-01-11T22:54:50.241Z,39.43
2018-01-11T22:57:18.492Z,35.83
2018-01-11T22:59:47.359Z,37.10
2018-01-11T23:02:15.580Z,38.87
2018-01-11T23:04:44.638Z,42.23
2018-01-11T23:07:12.921Z,39.00
2018-01-11T23:09:41.148Z,40.43
2018-01-11T23:12:09.410Z,42.13
2018-01-11T23:14:38.478Z,40.50
2018-01-11T23:17:06.693Z,41.93
2018-01-11T23:19:35.198Z,41.40
2018-01-11T23:22:03.501Z,43.77
2018-01-11T23:24:31.785Z,44.03
2018-01-11T23:27:00.039Z,45.63
2018-01-11T23:29:28.279Z,40.70
2018-01-11T23:31:56.542Z,44.97
2018-01-11T23:34:24.805Z,41.13
2018-01-11T23:36:53.109Z,44.10
2018-01-11T23:39:22.128Z,48.63
2018-01-11T23:41:50.422Z,45.90
2018-01-11T23:44:18.694Z,45.13
2018-01-11T23:46:46.934Z,46.50
2018-01-11T23:49:16.040Z,45.97
2018-01-11T23:51:44.332Z,45.50
2018-01-11T23:54:13.985Z,43.60
2018-01-11T23:56:42.374Z,42.47
2018-01-11T23:59:10.658Z,44.37
